Chesterfield, Idaho
Current Conditions -  °F | °C
As of 12:53 AM on Sunday 21 Dec 2014 (Local Time) from KPIH Reporting Station
Light Rain Light Rain  
Wind Chill: 29°   Ceiling: 2000
Heat Index: 37°   Visibility: 10mi
Dew Point: 36°   Wind: 12mph
Humidity: 96%   Direction: 200°SSW
Pressure: 29.9"   Gusts: NA
Location:  42.811°N, 111.938°W
Report Text: KPIH 210753Z AUTO 20010KT 10SM -RA OVC020 03/02 A2990 RMK AO2 SLP130 P0000 T00280022
Loading
Personal Weather Stations






























Interactive Weather Map New forecast layout! Learn more

10-Day Weather Forecast

Advertisements
Track Severe Weather on mobile